Terminal Aerodrome Forecast
Issued by NWS

Home | Current Version | Previous Version | Text Only | Print | Product List | Glossary On
Versions: 1 2 3 4 5 6 7 8 9 10 11 12 13 14 15 16 17 18
000
FTUS43 KOAX 220745 AAB
TAFSNY
TAF AMD
KSNY 220745Z 2208/2306 33025KT 2SM -SN BLSN SCT015 OVC030
     FM221100 31024G32KT 3SM BLSN OVC030
     FM221300 31020KT P6SM SCT030 BKN080=

USA.gov is the U.S. government's official web portal to all federal, state and local government web resources and services.